KJEF

Jefferson City Memorial Airport

Jefferson City, Missouri, USA
METAR KJEF 200953Z AUTO 34007KT 10SM CLR M11/M16 A3035 RMK AO2 SLP276 T11111156
Observed Flight Rules
Jan-20 @ 09:53 UTC (an hour ago) Visual Flight Rules
Wind Visibility Clouds
340° at 7 knots 10 miles
  • Clear skies
Temperatures Readings
Current -11°C / 12°F
Dewpoint -16°C / 3°F
Humidity 67%
Altimeter 30.35" Hg
Pressure 1027.6 hPa
Elevation 168
METAR KJEF 200953Z AUTO 34007KT 10SM CLR M11/M16 A3035 RMK AO2 SLP276 T11111156
Observed Flight Rules
Jan-20 @ 09:53 UTC
(an hour ago)
VFR
Wind Visibility
340° at 7 knots 10 miles
Clouds
  • Clear skies
Temperature Dewpoint
-11°C / 12°F -16°C / 3°F
Humidity Altimeter Pressure
67% 30.35" Hg 1027.6 hPa